sensor_id;sensor_type;location;lat;lon;timestamp;P1;durP1;ratioP1;P2;durP2;ratioP2
27424;SDS011;15244;49.088;11.886;2022-08-19T00:00:29;11.10;;;10.20;;
27424;SDS011;15244;49.088;11.886;2022-08-19T00:05:31;11.88;;;11.00;;
27424;SDS011;15244;49.088;11.886;2022-08-19T00:10:33;11.77;;;10.88;;
27424;SDS011;15244;49.088;11.886;2022-08-19T00:15:35;12.30;;;11.10;;
27424;SDS011;15244;49.088;11.886;2022-08-19T00:20:37;10.93;;;9.93;;
27424;SDS011;15244;49.088;11.886;2022-08-19T00:25:41;11.93;;;10.98;;
27424;SDS011;15244;49.088;11.886;2022-08-19T00:30:48;10.25;;;9.45;;
27424;SDS011;15244;49.088;11.886;2022-08-19T00:35:54;9.63;;;8.88;;
27424;SDS011;15244;49.088;11.886;2022-08-19T00:40:56;10.32;;;9.52;;
27424;SDS011;15244;49.088;11.886;2022-08-19T00:45:58;10.13;;;9.38;;
27424;SDS011;15244;49.088;11.886;2022-08-19T00:51:00;9.82;;;9.13;;
27424;SDS011;15244;49.088;11.886;2022-08-19T00:56:02;9.80;;;9.05;;
27424;SDS011;15244;49.088;11.886;2022-08-19T01:01:07;10.02;;;9.30;;
27424;SDS011;15244;49.088;11.886;2022-08-19T01:06:12;10.13;;;9.40;;
27424;SDS011;15244;49.088;11.886;2022-08-19T01:11:20;10.48;;;9.60;;
27424;SDS011;15244;49.088;11.886;2022-08-19T01:16:23;10.95;;;10.02;;
27424;SDS011;15244;49.088;11.886;2022-08-19T01:26:40;11.13;;;10.27;;
27424;SDS011;15244;49.088;11.886;2022-08-19T01:31:44;10.45;;;9.65;;
27424;SDS011;15244;49.088;11.886;2022-08-19T01:36:46;10.52;;;9.73;;
27424;SDS011;15244;49.088;11.886;2022-08-19T01:41:50;11.55;;;10.52;;
27424;SDS011;15244;49.088;11.886;2022-08-19T01:46:55;11.43;;;10.43;;
27424;SDS011;15244;49.088;11.886;2022-08-19T01:51:58;13.02;;;11.95;;
27424;SDS011;15244;49.088;11.886;2022-08-19T01:57:03;11.45;;;10.45;;
27424;SDS011;15244;49.088;11.886;2022-08-19T02:02:08;11.98;;;10.98;;
27424;SDS011;15244;49.088;11.886;2022-08-19T02:07:10;12.70;;;11.40;;
27424;SDS011;15244;49.088;11.886;2022-08-19T02:12:11;11.40;;;10.55;;
27424;SDS011;15244;49.088;11.886;2022-08-19T02:17:13;11.90;;;11.00;;
27424;SDS011;15244;49.088;11.886;2022-08-19T02:22:15;10.82;;;9.93;;
27424;SDS011;15244;49.088;11.886;2022-08-19T02:27:17;11.05;;;10.13;;
27424;SDS011;15244;49.088;11.886;2022-08-19T02:32:19;10.30;;;9.60;;
27424;SDS011;15244;49.088;11.886;2022-08-19T02:37:21;10.50;;;9.50;;
27424;SDS011;15244;49.088;11.886;2022-08-19T02:42:41;10.52;;;9.80;;
27424;SDS011;15244;49.088;11.886;2022-08-19T02:47:44;11.48;;;10.40;;
27424;SDS011;15244;49.088;11.886;2022-08-19T02:52:45;10.48;;;9.73;;
27424;SDS011;15244;49.088;11.886;2022-08-19T02:57:47;9.95;;;9.25;;
27424;SDS011;15244;49.088;11.886;2022-08-19T03:02:49;9.77;;;9.10;;
27424;SDS011;15244;49.088;11.886;2022-08-19T03:07:51;10.27;;;9.38;;
27424;SDS011;15244;49.088;11.886;2022-08-19T03:12:53;11.45;;;10.43;;
27424;SDS011;15244;49.088;11.886;2022-08-19T03:17:54;11.32;;;10.50;;
27424;SDS011;15244;49.088;11.886;2022-08-19T03:22:57;10.50;;;9.68;;
27424;SDS011;15244;49.088;11.886;2022-08-19T03:27:59;10.10;;;9.40;;
27424;SDS011;15244;49.088;11.886;2022-08-19T03:33:00;10.05;;;9.35;;
27424;SDS011;15244;49.088;11.886;2022-08-19T03:38:05;11.30;;;10.30;;
27424;SDS011;15244;49.088;11.886;2022-08-19T03:43:08;11.02;;;10.23;;
27424;SDS011;15244;49.088;11.886;2022-08-19T03:48:09;11.25;;;10.40;;
27424;SDS011;15244;49.088;11.886;2022-08-19T03:53:11;11.70;;;10.75;;
27424;SDS011;15244;49.088;11.886;2022-08-19T03:58:13;10.82;;;10.02;;
27424;SDS011;15244;49.088;11.886;2022-08-19T04:03:15;10.38;;;9.60;;
27424;SDS011;15244;49.088;11.886;2022-08-19T04:08:16;11.02;;;10.13;;
27424;SDS011;15244;49.088;11.886;2022-08-19T04:13:21;11.23;;;10.13;;
27424;SDS011;15244;49.088;11.886;2022-08-19T04:18:23;9.52;;;8.82;;
27424;SDS011;15244;49.088;11.886;2022-08-19T04:23:25;10.07;;;9.38;;
27424;SDS011;15244;49.088;11.886;2022-08-19T04:28:29;11.45;;;10.52;;
27424;SDS011;15244;49.088;11.886;2022-08-19T04:33:31;10.85;;;9.95;;
27424;SDS011;15244;49.088;11.886;2022-08-19T04:38:33;11.40;;;10.50;;
27424;SDS011;15244;49.088;11.886;2022-08-19T04:43:36;11.50;;;10.60;;
27424;SDS011;15244;49.088;11.886;2022-08-19T04:48:40;10.45;;;9.65;;
27424;SDS011;15244;49.088;11.886;2022-08-19T04:53:49;11.77;;;10.88;;
27424;SDS011;15244;49.088;11.886;2022-08-19T04:58:53;12.15;;;11.05;;
27424;SDS011;15244;49.088;11.886;2022-08-19T05:03:57;11.48;;;10.45;;
27424;SDS011;15244;49.088;11.886;2022-08-19T05:09:00;11.73;;;10.82;;
27424;SDS011;15244;49.088;11.886;2022-08-19T05:14:06;10.88;;;9.88;;
27424;SDS011;15244;49.088;11.886;2022-08-19T05:19:08;10.95;;;10.15;;
27424;SDS011;15244;49.088;11.886;2022-08-19T05:24:34;10.93;;;9.95;;
27424;SDS011;15244;49.088;11.886;2022-08-19T05:29:56;11.23;;;10.43;;
27424;SDS011;15244;49.088;11.886;2022-08-19T05:34:58;11.15;;;10.15;;
27424;SDS011;15244;49.088;11.886;2022-08-19T05:40:00;10.60;;;9.80;;
27424;SDS011;15244;49.088;11.886;2022-08-19T05:45:03;10.95;;;10.05;;
27424;SDS011;15244;49.088;11.886;2022-08-19T05:50:05;10.90;;;10.10;;
27424;SDS011;15244;49.088;11.886;2022-08-19T05:55:08;12.25;;;11.20;;
27424;SDS011;15244;49.088;11.886;2022-08-19T06:00:10;11.57;;;10.68;;
27424;SDS011;15244;49.088;11.886;2022-08-19T06:05:14;11.32;;;10.32;;
27424;SDS011;15244;49.088;11.886;2022-08-19T06:10:17;11.13;;;10.13;;
27424;SDS011;15244;49.088;11.886;2022-08-19T06:15:18;11.57;;;10.75;;
27424;SDS011;15244;49.088;11.886;2022-08-19T06:20:21;9.82;;;9.13;;
27424;SDS011;15244;49.088;11.886;2022-08-19T06:25:43;11.05;;;10.18;;
27424;SDS011;15244;49.088;11.886;2022-08-19T06:30:44;10.50;;;9.60;;
27424;SDS011;15244;49.088;11.886;2022-08-19T06:35:46;11.18;;;10.25;;
27424;SDS011;15244;49.088;11.886;2022-08-19T06:40:50;9.90;;;9.00;;
27424;SDS011;15244;49.088;11.886;2022-08-19T06:46:01;8.88;;;8.27;;
27424;SDS011;15244;49.088;11.886;2022-08-19T06:51:03;8.05;;;7.55;;
27424;SDS011;15244;49.088;11.886;2022-08-19T06:56:09;8.75;;;8.05;;
27424;SDS011;15244;49.088;11.886;2022-08-19T07:01:10;8.77;;;8.18;;
27424;SDS011;15244;49.088;11.886;2022-08-19T07:06:13;9.30;;;8.68;;
27424;SDS011;15244;49.088;11.886;2022-08-19T07:11:43;9.63;;;8.93;;
27424;SDS011;15244;49.088;11.886;2022-08-19T07:16:54;9.73;;;9.02;;
27424;SDS011;15244;49.088;11.886;2022-08-19T07:21:57;9.73;;;8.82;;
27424;SDS011;15244;49.088;11.886;2022-08-19T07:27:04;9.30;;;8.60;;
27424;SDS011;15244;49.088;11.886;2022-08-19T07:32:15;9.75;;;8.95;;
27424;SDS011;15244;49.088;11.886;2022-08-19T07:37:17;10.27;;;9.48;;
27424;SDS011;15244;49.088;11.886;2022-08-19T07:42:19;9.05;;;8.45;;
27424;SDS011;15244;49.088;11.886;2022-08-19T07:47:22;8.88;;;8.18;;
27424;SDS011;15244;49.088;11.886;2022-08-19T07:52:45;8.00;;;7.50;;
27424;SDS011;15244;49.088;11.886;2022-08-19T07:57:50;8.68;;;8.07;;
27424;SDS011;15244;49.088;11.886;2022-08-19T08:02:53;8.48;;;7.88;;
27424;SDS011;15244;49.088;11.886;2022-08-19T08:07:56;7.82;;;7.32;;
27424;SDS011;15244;49.088;11.886;2022-08-19T08:13:17;9.10;;;8.43;;
27424;SDS011;15244;49.088;11.886;2022-08-19T08:18:19;8.18;;;7.55;;
27424;SDS011;15244;49.088;11.886;2022-08-19T08:23:22;8.95;;;8.25;;
27424;SDS011;15244;49.088;11.886;2022-08-19T08:28:26;9.00;;;8.30;;
27424;SDS011;15244;49.088;11.886;2022-08-19T08:33:31;9.77;;;8.88;;
27424;SDS011;15244;49.088;11.886;2022-08-19T08:38:35;8.75;;;8.07;;
27424;SDS011;15244;49.088;11.886;2022-08-19T08:43:44;9.73;;;8.95;;
27424;SDS011;15244;49.088;11.886;2022-08-19T08:48:50;9.80;;;9.10;;
27424;SDS011;15244;49.088;11.886;2022-08-19T08:53:55;10.30;;;9.38;;
27424;SDS011;15244;49.088;11.886;2022-08-19T08:59:02;9.57;;;8.75;;
27424;SDS011;15244;49.088;11.886;2022-08-19T09:04:10;10.00;;;9.20;;
27424;SDS011;15244;49.088;11.886;2022-08-19T09:09:18;9.32;;;8.73;;
27424;SDS011;15244;49.088;11.886;2022-08-19T09:14:29;9.70;;;8.82;;
27424;SDS011;15244;49.088;11.886;2022-08-19T09:19:53;8.27;;;7.68;;
27424;SDS011;15244;49.088;11.886;2022-08-19T09:25:00;8.27;;;7.63;;
27424;SDS011;15244;49.088;11.886;2022-08-19T09:30:18;7.78;;;7.28;;
27424;SDS011;15244;49.088;11.886;2022-08-19T09:35:26;9.93;;;9.07;;
27424;SDS011;15244;49.088;11.886;2022-08-19T09:40:30;9.02;;;8.27;;
27424;SDS011;15244;49.088;11.886;2022-08-19T09:45:38;7.88;;;7.28;;
27424;SDS011;15244;49.088;11.886;2022-08-19T09:50:42;8.70;;;8.10;;
27424;SDS011;15244;49.088;11.886;2022-08-19T09:55:57;7.22;;;6.70;;
27424;SDS011;15244;49.088;11.886;2022-08-19T10:01:00;8.05;;;7.40;;
27424;SDS011;15244;49.088;11.886;2022-08-19T10:06:04;8.63;;;8.00;;
27424;SDS011;15244;49.088;11.886;2022-08-19T10:11:18;9.85;;;8.88;;
27424;SDS011;15244;49.088;11.886;2022-08-19T10:16:36;9.50;;;8.80;;
27424;SDS011;15244;49.088;11.886;2022-08-19T10:21:40;8.23;;;7.63;;
27424;SDS011;15244;49.088;11.886;2022-08-19T10:26:43;8.32;;;7.82;;
27424;SDS011;15244;49.088;11.886;2022-08-19T10:31:56;7.95;;;7.45;;
27424;SDS011;15244;49.088;11.886;2022-08-19T10:37:03;7.70;;;7.20;;
27424;SDS011;15244;49.088;11.886;2022-08-19T10:47:14;7.65;;;7.15;;
27424;SDS011;15244;49.088;11.886;2022-08-19T10:52:28;8.82;;;8.15;;
27424;SDS011;15244;49.088;11.886;2022-08-19T10:57:39;8.23;;;7.68;;
27424;SDS011;15244;49.088;11.886;2022-08-19T11:03:03;8.32;;;7.72;;
27424;SDS011;15244;49.088;11.886;2022-08-19T11:08:05;9.30;;;8.50;;
27424;SDS011;15244;49.088;11.886;2022-08-19T11:13:24;9.43;;;8.82;;
27424;SDS011;15244;49.088;11.886;2022-08-19T11:18:26;9.73;;;9.02;;
27424;SDS011;15244;49.088;11.886;2022-08-19T11:23:29;8.93;;;8.13;;
27424;SDS011;15244;49.088;11.886;2022-08-19T11:28:32;9.13;;;8.32;;
27424;SDS011;15244;49.088;11.886;2022-08-19T11:33:38;7.80;;;7.30;;
27424;SDS011;15244;49.088;11.886;2022-08-19T11:38:48;8.73;;;8.05;;
27424;SDS011;15244;49.088;11.886;2022-08-19T11:43:53;7.60;;;7.10;;
27424;SDS011;15244;49.088;11.886;2022-08-19T11:48:57;8.57;;;7.93;;
27424;SDS011;15244;49.088;11.886;2022-08-19T11:54:03;7.90;;;7.30;;
27424;SDS011;15244;49.088;11.886;2022-08-19T11:59:06;7.55;;;6.95;;
27424;SDS011;15244;49.088;11.886;2022-08-19T12:09:19;5.93;;;5.63;;
27424;SDS011;15244;49.088;11.886;2022-08-19T12:14:20;6.65;;;6.03;;
27424;SDS011;15244;49.088;11.886;2022-08-19T12:19:25;6.53;;;6.13;;
27424;SDS011;15244;49.088;11.886;2022-08-19T12:24:27;6.80;;;6.30;;
27424;SDS011;15244;49.088;11.886;2022-08-19T12:29:29;6.97;;;6.57;;
27424;SDS011;15244;49.088;11.886;2022-08-19T12:34:31;7.35;;;6.82;;
27424;SDS011;15244;49.088;11.886;2022-08-19T12:39:37;7.45;;;6.85;;
27424;SDS011;15244;49.088;11.886;2022-08-19T12:44:42;8.25;;;7.45;;
27424;SDS011;15244;49.088;11.886;2022-08-19T12:49:45;8.10;;;7.40;;
27424;SDS011;15244;49.088;11.886;2022-08-19T12:54:56;7.40;;;6.97;;
27424;SDS011;15244;49.088;11.886;2022-08-19T13:00:05;9.15;;;8.35;;
27424;SDS011;15244;49.088;11.886;2022-08-19T13:10:22;8.88;;;8.18;;
27424;SDS011;15244;49.088;11.886;2022-08-19T13:15:28;9.10;;;8.40;;
27424;SDS011;15244;49.088;11.886;2022-08-19T13:20:32;8.25;;;7.65;;
27424;SDS011;15244;49.088;11.886;2022-08-19T13:25:34;9.50;;;8.60;;
27424;SDS011;15244;49.088;11.886;2022-08-19T13:30:36;10.15;;;9.23;;
27424;SDS011;15244;49.088;11.886;2022-08-19T13:35:57;10.48;;;9.48;;
27424;SDS011;15244;49.088;11.886;2022-08-19T13:41:04;10.45;;;9.45;;
27424;SDS011;15244;49.088;11.886;2022-08-19T13:46:15;9.57;;;8.77;;
27424;SDS011;15244;49.088;11.886;2022-08-19T13:51:17;10.10;;;9.23;;
27424;SDS011;15244;49.088;11.886;2022-08-19T13:56:21;10.43;;;9.38;;
27424;SDS011;15244;49.088;11.886;2022-08-19T14:01:26;10.82;;;9.68;;
27424;SDS011;15244;49.088;11.886;2022-08-19T14:06:29;9.38;;;8.65;;
27424;SDS011;15244;49.088;11.886;2022-08-19T14:11:31;10.10;;;9.30;;
27424;SDS011;15244;49.088;11.886;2022-08-19T14:16:34;10.18;;;9.27;;
27424;SDS011;15244;49.088;11.886;2022-08-19T14:21:36;10.35;;;9.65;;
27424;SDS011;15244;49.088;11.886;2022-08-19T14:26:42;9.80;;;9.00;;
27424;SDS011;15244;49.088;11.886;2022-08-19T14:31:45;9.07;;;8.48;;
27424;SDS011;15244;49.088;11.886;2022-08-19T14:36:47;8.05;;;7.55;;
27424;SDS011;15244;49.088;11.886;2022-08-19T14:41:50;7.65;;;7.18;;
27424;SDS011;15244;49.088;11.886;2022-08-19T14:46:52;7.70;;;7.00;;
27424;SDS011;15244;49.088;11.886;2022-08-19T14:51:54;8.25;;;7.65;;
27424;SDS011;15244;49.088;11.886;2022-08-19T14:56:56;7.57;;;6.97;;
27424;SDS011;15244;49.088;11.886;2022-08-19T15:01:58;8.25;;;7.57;;
27424;SDS011;15244;49.088;11.886;2022-08-19T15:07:20;7.32;;;6.82;;
27424;SDS011;15244;49.088;11.886;2022-08-19T15:12:30;7.10;;;6.70;;
27424;SDS011;15244;49.088;11.886;2022-08-19T15:17:33;8.25;;;7.45;;
27424;SDS011;15244;49.088;11.886;2022-08-19T15:22:46;7.50;;;7.00;;
27424;SDS011;15244;49.088;11.886;2022-08-19T15:27:48;8.27;;;7.68;;
27424;SDS011;15244;49.088;11.886;2022-08-19T15:32:51;8.50;;;7.90;;
27424;SDS011;15244;49.088;11.886;2022-08-19T15:37:56;8.68;;;7.97;;
27424;SDS011;15244;49.088;11.886;2022-08-19T15:42:58;9.55;;;8.95;;
27424;SDS011;15244;49.088;11.886;2022-08-19T15:48:00;8.68;;;8.07;;
27424;SDS011;15244;49.088;11.886;2022-08-19T15:53:04;10.07;;;9.23;;
27424;SDS011;15244;49.088;11.886;2022-08-19T15:58:10;9.85;;;9.05;;
27424;SDS011;15244;49.088;11.886;2022-08-19T16:03:32;9.30;;;8.60;;
27424;SDS011;15244;49.088;11.886;2022-08-19T16:08:53;9.50;;;8.80;;
27424;SDS011;15244;49.088;11.886;2022-08-19T16:14:05;8.40;;;7.65;;
27424;SDS011;15244;49.088;11.886;2022-08-19T16:19:09;8.35;;;7.60;;
27424;SDS011;15244;49.088;11.886;2022-08-19T16:24:13;8.68;;;7.97;;
27424;SDS011;15244;49.088;11.886;2022-08-19T16:29:17;8.80;;;8.10;;
27424;SDS011;15244;49.088;11.886;2022-08-19T16:34:34;9.50;;;8.68;;
27424;SDS011;15244;49.088;11.886;2022-08-19T16:39:38;8.93;;;8.13;;
27424;SDS011;15244;49.088;11.886;2022-08-19T16:44:44;8.48;;;7.78;;
27424;SDS011;15244;49.088;11.886;2022-08-19T16:49:48;8.98;;;8.27;;
27424;SDS011;15244;49.088;11.886;2022-08-19T16:54:55;8.85;;;8.02;;
27424;SDS011;15244;49.088;11.886;2022-08-19T17:00:01;8.15;;;7.55;;
27424;SDS011;15244;49.088;11.886;2022-08-19T17:05:10;8.65;;;8.05;;
27424;SDS011;15244;49.088;11.886;2022-08-19T17:10:13;7.07;;;6.60;;
27424;SDS011;15244;49.088;11.886;2022-08-19T17:15:15;6.82;;;6.32;;
27424;SDS011;15244;49.088;11.886;2022-08-19T17:20:17;6.35;;;5.95;;
27424;SDS011;15244;49.088;11.886;2022-08-19T17:25:19;6.07;;;5.57;;
27424;SDS011;15244;49.088;11.886;2022-08-19T17:30:21;5.32;;;5.03;;
27424;SDS011;15244;49.088;11.886;2022-08-19T17:35:24;6.00;;;5.50;;
27424;SDS011;15244;49.088;11.886;2022-08-19T17:40:27;5.13;;;4.82;;
27424;SDS011;15244;49.088;11.886;2022-08-19T17:45:30;5.20;;;4.78;;
27424;SDS011;15244;49.088;11.886;2022-08-19T17:50:32;6.03;;;5.63;;
27424;SDS011;15244;49.088;11.886;2022-08-19T17:55:35;5.45;;;5.03;;
27424;SDS011;15244;49.088;11.886;2022-08-19T18:00:37;5.95;;;5.55;;
27424;SDS011;15244;49.088;11.886;2022-08-19T18:05:54;6.22;;;5.82;;
27424;SDS011;15244;49.088;11.886;2022-08-19T18:10:58;6.93;;;6.53;;
27424;SDS011;15244;49.088;11.886;2022-08-19T18:16:00;6.22;;;5.82;;
27424;SDS011;15244;49.088;11.886;2022-08-19T18:21:03;6.45;;;5.97;;
27424;SDS011;15244;49.088;11.886;2022-08-19T18:26:06;6.65;;;6.15;;
27424;SDS011;15244;49.088;11.886;2022-08-19T18:31:08;6.85;;;6.28;;
27424;SDS011;15244;49.088;11.886;2022-08-19T18:36:09;7.00;;;6.60;;
27424;SDS011;15244;49.088;11.886;2022-08-19T18:41:12;8.05;;;7.35;;
27424;SDS011;15244;49.088;11.886;2022-08-19T18:46:32;7.15;;;6.65;;
27424;SDS011;15244;49.088;11.886;2022-08-19T18:51:58;7.90;;;7.22;;
27424;SDS011;15244;49.088;11.886;2022-08-19T18:57:04;7.53;;;7.03;;
27424;SDS011;15244;49.088;11.886;2022-08-19T19:02:06;6.82;;;6.40;;
27424;SDS011;15244;49.088;11.886;2022-08-19T19:07:08;7.50;;;7.00;;
27424;SDS011;15244;49.088;11.886;2022-08-19T19:12:11;7.50;;;7.00;;
27424;SDS011;15244;49.088;11.886;2022-08-19T19:17:14;8.05;;;7.55;;
27424;SDS011;15244;49.088;11.886;2022-08-19T19:22:18;7.80;;;7.20;;
27424;SDS011;15244;49.088;11.886;2022-08-19T19:27:22;8.27;;;7.57;;
27424;SDS011;15244;49.088;11.886;2022-08-19T19:32:25;7.65;;;7.15;;
27424;SDS011;15244;49.088;11.886;2022-08-19T19:37:34;7.20;;;6.75;;
27424;SDS011;15244;49.088;11.886;2022-08-19T19:42:35;6.78;;;6.38;;
27424;SDS011;15244;49.088;11.886;2022-08-19T19:47:38;6.68;;;6.10;;
27424;SDS011;15244;49.088;11.886;2022-08-19T19:52:40;5.43;;;5.13;;
27424;SDS011;15244;49.088;11.886;2022-08-19T19:57:46;5.97;;;5.50;;
27424;SDS011;15244;49.088;11.886;2022-08-19T20:02:49;5.88;;;5.47;;
27424;SDS011;15244;49.088;11.886;2022-08-19T20:07:52;5.38;;;5.07;;
27424;SDS011;15244;49.088;11.886;2022-08-19T20:13:14;5.50;;;5.20;;
27424;SDS011;15244;49.088;11.886;2022-08-19T20:18:16;5.85;;;5.45;;
27424;SDS011;15244;49.088;11.886;2022-08-19T20:23:19;7.40;;;6.80;;
27424;SDS011;15244;49.088;11.886;2022-08-19T20:28:22;6.57;;;6.07;;
27424;SDS011;15244;49.088;11.886;2022-08-19T20:33:26;6.55;;;6.15;;
27424;SDS011;15244;49.088;11.886;2022-08-19T20:38:29;5.70;;;5.40;;
27424;SDS011;15244;49.088;11.886;2022-08-19T20:43:36;5.65;;;5.35;;
27424;SDS011;15244;49.088;11.886;2022-08-19T20:48:40;5.75;;;5.45;;
27424;SDS011;15244;49.088;11.886;2022-08-19T20:53:43;6.30;;;5.90;;
27424;SDS011;15244;49.088;11.886;2022-08-19T20:58:45;6.95;;;6.40;;
27424;SDS011;15244;49.088;11.886;2022-08-19T21:03:54;6.55;;;6.00;;
27424;SDS011;15244;49.088;11.886;2022-08-19T21:08:56;5.85;;;5.47;;
27424;SDS011;15244;49.088;11.886;2022-08-19T21:13:58;6.90;;;6.30;;
27424;SDS011;15244;49.088;11.886;2022-08-19T21:19:02;5.93;;;5.53;;
27424;SDS011;15244;49.088;11.886;2022-08-19T21:24:05;5.95;;;5.55;;
27424;SDS011;15244;49.088;11.886;2022-08-19T21:29:07;5.57;;;5.28;;
27424;SDS011;15244;49.088;11.886;2022-08-19T21:34:11;5.43;;;5.13;;
27424;SDS011;15244;49.088;11.886;2022-08-19T21:39:13;6.10;;;5.60;;
27424;SDS011;15244;49.088;11.886;2022-08-19T21:44:14;5.10;;;4.80;;
27424;SDS011;15244;49.088;11.886;2022-08-19T21:49:17;5.45;;;4.78;;
27424;SDS011;15244;49.088;11.886;2022-08-19T21:54:20;5.13;;;4.72;;
27424;SDS011;15244;49.088;11.886;2022-08-19T21:59:23;5.13;;;4.85;;
27424;SDS011;15244;49.088;11.886;2022-08-19T22:04:25;4.43;;;4.13;;
27424;SDS011;15244;49.088;11.886;2022-08-19T22:09:29;4.43;;;4.13;;
27424;SDS011;15244;49.088;11.886;2022-08-19T22:14:31;4.40;;;3.85;;
27424;SDS011;15244;49.088;11.886;2022-08-19T22:19:34;5.30;;;4.10;;
27424;SDS011;15244;49.088;11.886;2022-08-19T22:24:36;4.32;;;3.85;;
27424;SDS011;15244;49.088;11.886;2022-08-19T22:29:37;3.88;;;3.67;;
27424;SDS011;15244;49.088;11.886;2022-08-19T22:34:39;4.22;;;4.03;;
27424;SDS011;15244;49.088;11.886;2022-08-19T22:39:42;4.47;;;4.18;;
27424;SDS011;15244;49.088;11.886;2022-08-19T22:44:44;3.30;;;3.10;;
27424;SDS011;15244;49.088;11.886;2022-08-19T22:49:47;3.92;;;3.63;;
27424;SDS011;15244;49.088;11.886;2022-08-19T22:54:50;3.40;;;3.22;;
27424;SDS011;15244;49.088;11.886;2022-08-19T22:59:54;3.28;;;3.00;;
27424;SDS011;15244;49.088;11.886;2022-08-19T23:05:02;3.35;;;3.20;;
27424;SDS011;15244;49.088;11.886;2022-08-19T23:10:07;3.60;;;3.30;;
27424;SDS011;15244;49.088;11.886;2022-08-19T23:15:19;3.42;;;3.33;;
27424;SDS011;15244;49.088;11.886;2022-08-19T23:20:27;3.13;;;2.92;;
27424;SDS011;15244;49.088;11.886;2022-08-19T23:30:39;3.28;;;3.08;;
27424;SDS011;15244;49.088;11.886;2022-08-19T23:35:44;2.80;;;2.60;;
27424;SDS011;15244;49.088;11.886;2022-08-19T23:40:48;2.60;;;2.50;;
27424;SDS011;15244;49.088;11.886;2022-08-19T23:45:55;2.83;;;2.72;;
27424;SDS011;15244;49.088;11.886;2022-08-19T23:51:05;3.00;;;2.88;;
27424;SDS011;15244;49.088;11.886;2022-08-19T23:56:09;2.80;;;2.70;;
